Skip Navigation Links Skip Navigation Links

Current Weather

Essex County, Caldwell, N.J.

For information only: do not use for flight planning or navigation.
Latest weather
Observation time Monday, June 21, 2021 10:03 PM EDT
Local time Monday, June 21, 2021 10:33 PM EDT
Flight conditions Visual Meteorological Conditions
Winds
Wind direction West (280°)
Winds variable from 230° to 300°
Wind speed 9 mph
Wind gusting to 18 mph
Visibility 10 mi.
Present weather light rain
Sky condition
Ceiling unlimited
Cloud layer few clouds 6,000 ft.
Cloud layer few clouds 11,000 ft.
Temperature 85°F
Dewpoint 70°F
Altimeter 29.63 in.Hg
Precipitation
Rain began 9:56 PM
Precipitation last hour trace
Derived measurements
Relative humidity 61%
Heat index 89°F
Density altitude 2495 ft.
Remarks
Automated weather observing station with precipitation discriminator.
Lightning observed distant north and northeast.
METAR KCDW 220203Z 28008G16KT 230V300 10SM -RA FEW060 FEW110 29/21 A2963 RMK AO2 LTG DSNT N AND NE RAB0156 P0000 T02940211

Settings

Location code

InnerDrive.Weather 4.0.6770.0 Release CLR 4.0.30319.42000
Copyright ©2018 Inner Drive Technology. All rights reserved. Portions Copyright ©1986-2018 David Braverman.

Find weather

Site navigation


Skip Navigation Links

Place info

Page info

PayPal - The safer, easier way to pay online!

Return home.

Copyright ©2021 Inner Drive Technology. Purveyors of fine, hand-crafted computer software. Page printed 2021-06-22T02:33:32 UTC.